Airfield :







YOU CAN JOIN US ON...

 
LOGIN :

Register | Disclaimer

   EN    FR    IT 

 









Legend :    VFR   Marginal VFR   IFR   Intensive IFR   Very Intensive IFR
Visi :
Ceiling :
>= 8 km
>= 3000ft
5 to 8 km
1000 to 3000 ft
1500m to 5 km
500 to 1000 ft
800 to 1500m
200 to 500 ft
< 800m
< 200 ft
Symbols :   Thunderstorms  Fog  Heavy snow  Heavy precipitations  Wind > 20 kt






- Airport Elevation : 23 ft
- IATA code : STT


TIST - King

CURRENT METAR :
  • 181753Z 16007KT 10SM FEW020 SCT090 31/27 A2989 RMK AO2 SLP122 6//// T03060272 10311 20278 58012 PNO $

EXPIRED METARs :
  • 181653Z 16007KT 10SM CLR 31/27 A2991 RMK AO2 SLP127 T03060272 PNO $
  • 181553Z 16006KT 10SM CLR 30/27 A2992 RMK AO2 SLP131 T03000267 PNO $
  • 181453Z 15006KT 10SM FEW030 30/26 A2993 RMK AO2 SLP134 6//// T03000261 53002 PNO $
  • 181353Z 13008KT 10SM CLR 29/27 A2992 RMK AO2 SLP130 T02940272 PNO $
  • 181253Z 12007KT 10SM SCT030 29/27 A2992 RMK AO2 SLP130 T02940272 PNO $

TAF TIST
Valid from the 18 at 18:00 until the 19 at 18:00 UTC


181720Z 1818/1918 14010KT P6SM FEW030 SCT050
FM182200 09005KT P6SM VCSH SCT040
FM191300 13010KT P6SM -SHRA VCTS SCT030CB BKN050
TJZS FIR / North America



MET'MAP, your aeronautical weather chart ! - Copyright ORBIFLY December 2007 - Disclaimer

ORBIFLY MET'MAP TEAM :

Programming & Development : Alexandra Zaïnal
Original concept : Baudouin d'Aumeries
Technical & hardware support : Manuel Goepfert
Assistance : Marc-Olivier Méhu




SOURCES & CREDITS :

   NOAA